sensor_id;sensor_type;location;lat;lon;timestamp;pressure;altitude;pressure_sealevel;temperature;humidity
42067;BME280;27734;47.028;28.820;2023-05-29T00:00:05;100433.33;;;17.57;50.56
42067;BME280;27734;47.028;28.820;2023-05-29T00:02:58;100434.22;;;17.55;50.98
42067;BME280;27734;47.028;28.820;2023-05-29T00:05:26;100431.54;;;17.50;50.56
42067;BME280;27734;47.028;28.820;2023-05-29T00:07:55;100442.14;;;17.49;50.78
42067;BME280;27734;47.028;28.820;2023-05-29T00:10:23;100443.00;;;17.46;51.03
42067;BME280;27734;47.028;28.820;2023-05-29T00:12:53;100442.11;;;17.44;50.77
42067;BME280;27734;47.028;28.820;2023-05-29T00:15:23;100435.01;;;17.41;50.68
42067;BME280;27734;47.028;28.820;2023-05-29T00:17:52;100436.78;;;17.41;50.96
42067;BME280;27734;47.028;28.820;2023-05-29T00:20:20;100432.34;;;17.38;51.10
42067;BME280;27734;47.028;28.820;2023-05-29T00:22:49;100427.03;;;17.38;51.12
42067;BME280;27734;47.028;28.820;2023-05-29T00:25:18;100433.20;;;17.39;51.08
42067;BME280;27734;47.028;28.820;2023-05-29T00:27:46;100426.16;;;17.38;50.68
42067;BME280;27734;47.028;28.820;2023-05-29T00:30:15;100430.57;;;17.36;50.76
42067;BME280;27734;47.028;28.820;2023-05-29T00:32:43;100427.92;;;17.36;50.63
42067;BME280;27734;47.028;28.820;2023-05-29T00:35:13;100434.95;;;17.34;51.04
42067;BME280;27734;47.028;28.820;2023-05-29T00:37:42;100438.50;;;17.33;50.68
42067;BME280;27734;47.028;28.820;2023-05-29T00:40:11;100432.29;;;17.32;51.20
42067;BME280;27734;47.028;28.820;2023-05-29T00:42:40;100433.19;;;17.31;50.98
42067;BME280;27734;47.028;28.820;2023-05-29T00:45:10;100430.52;;;17.28;50.89
42067;BME280;27734;47.028;28.820;2023-05-29T00:47:38;100428.73;;;17.27;50.63
42067;BME280;27734;47.028;28.820;2023-05-29T00:50:09;100429.61;;;17.28;50.98
42067;BME280;27734;47.028;28.820;2023-05-29T00:52:40;100422.56;;;17.28;50.87
42067;BME280;27734;47.028;28.820;2023-05-29T00:55:09;100425.21;;;17.28;50.67
42067;BME280;27734;47.028;28.820;2023-05-29T00:57:39;100430.52;;;17.28;51.07
42067;BME280;27734;47.028;28.820;2023-05-29T01:00:09;100426.95;;;17.28;51.01
42067;BME280;27734;47.028;28.820;2023-05-29T01:02:43;100434.02;;;17.25;50.61
42067;BME280;27734;47.028;28.820;2023-05-29T01:05:13;100427.80;;;17.20;50.87
42067;BME280;27734;47.028;28.820;2023-05-29T01:07:56;100424.21;;;17.15;50.98
42067;BME280;27734;47.028;28.820;2023-05-29T01:10:25;100432.12;;;17.11;50.99
42067;BME280;27734;47.028;28.820;2023-05-29T01:13:02;100429.47;;;17.09;50.60
42067;BME280;27734;47.028;28.820;2023-05-29T01:15:40;100430.34;;;17.06;51.24
42067;BME280;27734;47.028;28.820;2023-05-29T01:18:21;100432.98;;;17.05;51.23
42067;BME280;27734;47.028;28.820;2023-05-29T01:20:55;100434.74;;;17.06;51.27
42067;BME280;27734;47.028;28.820;2023-05-29T01:24:02;100434.75;;;17.07;50.72
42067;BME280;27734;47.028;28.820;2023-05-29T01:26:52;100425.94;;;17.09;51.34
42067;BME280;27734;47.028;28.820;2023-05-29T01:29:26;100427.72;;;17.10;51.05
42067;BME280;27734;47.028;28.820;2023-05-29T01:31:56;100427.73;;;17.11;51.13
42067;BME280;27734;47.028;28.820;2023-05-29T01:34:26;100432.14;;;17.12;51.28
42067;BME280;27734;47.028;28.820;2023-05-29T01:36:55;100433.03;;;17.11;50.90
42067;BME280;27734;47.028;28.820;2023-05-29T01:39:24;100435.67;;;17.10;51.40
42067;BME280;27734;47.028;28.820;2023-05-29T01:41:54;100429.45;;;17.07;51.34
42067;BME280;27734;47.028;28.820;2023-05-29T01:44:23;100423.23;;;17.02;51.23
42067;BME280;27734;47.028;28.820;2023-05-29T01:46:53;100418.77;;;16.97;51.61
42067;BME280;27734;47.028;28.820;2023-05-29T01:49:24;100424.01;;;16.91;51.28
42067;BME280;27734;47.028;28.820;2023-05-29T01:51:54;100423.06;;;16.85;51.43
42067;BME280;27734;47.028;28.820;2023-05-29T01:54:23;100428.30;;;16.79;51.50
42067;BME280;27734;47.028;28.820;2023-05-29T01:56:52;100434.48;;;16.77;51.74
42067;BME280;27734;47.028;28.820;2023-05-29T01:59:21;100428.26;;;16.75;51.82
42067;BME280;27734;47.028;28.820;2023-05-29T02:01:50;100429.16;;;16.75;51.89
42067;BME280;27734;47.028;28.820;2023-05-29T02:04:19;100438.85;;;16.75;51.45
42067;BME280;27734;47.028;28.820;2023-05-29T02:06:47;100437.12;;;16.75;51.72
42067;BME280;27734;47.028;28.820;2023-05-29T02:09:17;100444.14;;;16.73;51.57
42067;BME280;27734;47.028;28.820;2023-05-29T02:11:46;100438.81;;;16.70;51.96
42067;BME280;27734;47.028;28.820;2023-05-29T02:14:14;100446.76;;;16.70;51.91
42067;BME280;27734;47.028;28.820;2023-05-29T02:16:43;100456.50;;;16.71;52.09
42067;BME280;27734;47.028;28.820;2023-05-29T02:19:12;100453.83;;;16.69;52.20
42067;BME280;27734;47.028;28.820;2023-05-29T02:21:41;100454.69;;;16.68;51.71
42067;BME280;27734;47.028;28.820;2023-05-29T02:24:09;100455.57;;;16.66;51.74
42067;BME280;27734;47.028;28.820;2023-05-29T02:26:38;100462.59;;;16.64;52.43
42067;BME280;27734;47.028;28.820;2023-05-29T02:29:06;100460.80;;;16.60;52.22
42067;BME280;27734;47.028;28.820;2023-05-29T02:31:35;100460.77;;;16.57;52.00
42067;BME280;27734;47.028;28.820;2023-05-29T02:34:06;100463.39;;;16.53;52.36
42067;BME280;27734;47.028;28.820;2023-05-29T02:36:34;100458.92;;;16.49;52.54
42067;BME280;27734;47.028;28.820;2023-05-29T02:39:05;100466.83;;;16.46;51.93
42067;BME280;27734;47.028;28.820;2023-05-29T02:41:33;100468.58;;;16.44;52.41
42067;BME280;27734;47.028;28.820;2023-05-29T02:44:02;100469.44;;;16.43;52.56
42067;BME280;27734;47.028;28.820;2023-05-29T02:46:31;100470.30;;;16.42;52.58
42067;BME280;27734;47.028;28.820;2023-05-29T02:48:59;100473.88;;;16.44;52.06
42067;BME280;27734;47.028;28.820;2023-05-29T02:51:28;100464.16;;;16.45;52.61
42067;BME280;27734;47.028;28.820;2023-05-29T02:53:56;100476.55;;;16.46;52.70
42067;BME280;27734;47.028;28.820;2023-05-29T02:56:25;100475.65;;;16.47;52.79
42067;BME280;27734;47.028;28.820;2023-05-29T02:58:53;100473.00;;;16.47;52.25
42067;BME280;27734;47.028;28.820;2023-05-29T03:01:22;100469.49;;;16.48;52.82
42067;BME280;27734;47.028;28.820;2023-05-29T03:03:50;100468.62;;;16.47;52.63
42067;BME280;27734;47.028;28.820;2023-05-29T03:06:19;100466.84;;;16.48;52.82
42067;BME280;27734;47.028;28.820;2023-05-29T03:08:47;100465.06;;;16.47;52.71
42067;BME280;27734;47.028;28.820;2023-05-29T03:11:17;100459.78;;;16.48;52.48
42067;BME280;27734;47.028;28.820;2023-05-29T03:13:46;100463.34;;;16.49;53.08
42067;BME280;27734;47.028;28.820;2023-05-29T03:16:17;100466.00;;;16.50;52.53
42067;BME280;27734;47.028;28.820;2023-05-29T03:18:46;100472.20;;;16.52;53.13
42067;BME280;27734;47.028;28.820;2023-05-29T03:21:15;100466.03;;;16.53;52.62
42067;BME280;27734;47.028;28.820;2023-05-29T03:23:44;100469.59;;;16.57;53.18
42067;BME280;27734;47.028;28.820;2023-05-29T03:26:12;100470.50;;;16.61;53.46
42067;BME280;27734;47.028;28.820;2023-05-29T03:28:41;100476.72;;;16.61;53.13
42067;BME280;27734;47.028;28.820;2023-05-29T03:31:10;100477.63;;;16.65;53.61
42067;BME280;27734;47.028;28.820;2023-05-29T03:33:39;100482.06;;;16.66;53.93
42067;BME280;27734;47.028;28.820;2023-05-29T03:36:19;100482.92;;;16.65;53.67
42067;BME280;27734;47.028;28.820;2023-05-29T03:38:48;100482.02;;;16.61;53.86
42067;BME280;27734;47.028;28.820;2023-05-29T03:41:19;100485.54;;;16.62;53.96
42067;BME280;27734;47.028;28.820;2023-05-29T03:43:48;100488.19;;;16.62;54.47
42067;BME280;27734;47.028;28.820;2023-05-29T03:46:17;100492.61;;;16.61;54.59
42067;BME280;27734;47.028;28.820;2023-05-29T03:48:46;100494.36;;;16.62;54.94
42067;BME280;27734;47.028;28.820;2023-05-29T03:51:14;100497.03;;;16.64;54.56
42067;BME280;27734;47.028;28.820;2023-05-29T03:53:43;100501.44;;;16.62;54.71
42067;BME280;27734;47.028;28.820;2023-05-29T03:56:11;100504.98;;;16.64;54.98
42067;BME280;27734;47.028;28.820;2023-05-29T03:58:40;100497.03;;;16.64;54.53
42067;BME280;27734;47.028;28.820;2023-05-29T04:01:09;100498.88;;;16.69;54.70
42067;BME280;27734;47.028;28.820;2023-05-29T04:03:37;100493.60;;;16.73;54.68
42067;BME280;27734;47.028;28.820;2023-05-29T04:06:07;100496.30;;;16.77;54.97
42067;BME280;27734;47.028;28.820;2023-05-29T04:08:36;100496.36;;;16.83;55.46
42067;BME280;27734;47.028;28.820;2023-05-29T04:11:05;100497.33;;;16.88;55.25
42067;BME280;27734;47.028;28.820;2023-05-29T04:13:34;100503.58;;;16.97;55.30
42067;BME280;27734;47.028;28.820;2023-05-29T04:16:02;100504.58;;;17.06;55.34
42067;BME280;27734;47.028;28.820;2023-05-29T04:18:31;100505.53;;;17.16;55.24
42067;BME280;27734;47.028;28.820;2023-05-29T04:21:00;100506.50;;;17.26;55.15
42067;BME280;27734;47.028;28.820;2023-05-29T04:23:29;100513.66;;;17.36;55.10
42067;BME280;27734;47.028;28.820;2023-05-29T04:25:57;100512.83;;;17.45;55.11
42067;BME280;27734;47.028;28.820;2023-05-29T04:28:44;100512.03;;;17.55;55.06
42067;BME280;27734;47.028;28.820;2023-05-29T04:31:28;100512.14;;;17.71;54.82
42067;BME280;27734;47.028;28.820;2023-05-29T04:33:57;100506.04;;;17.83;54.72
42067;BME280;27734;47.028;28.820;2023-05-29T04:36:28;100503.45;;;17.93;54.58
42067;BME280;27734;47.028;28.820;2023-05-29T04:39:08;100513.25;;;18.04;54.65
42067;BME280;27734;47.028;28.820;2023-05-29T04:41:36;100513.30;;;18.13;54.46
42067;BME280;27734;47.028;28.820;2023-05-29T04:44:06;100506.24;;;18.20;54.27
42067;BME280;27734;47.028;28.820;2023-05-29T04:46:42;100505.41;;;18.27;54.09
42067;BME280;27734;47.028;28.820;2023-05-29T04:49:12;100509.86;;;18.32;53.67
42067;BME280;27734;47.028;28.820;2023-05-29T04:51:41;100509.88;;;18.36;53.65
42067;BME280;27734;47.028;28.820;2023-05-29T04:54:10;100514.28;;;18.37;53.57
42067;BME280;27734;47.028;28.820;2023-05-29T04:56:39;100508.97;;;18.37;53.08
42067;BME280;27734;47.028;28.820;2023-05-29T04:59:13;100516.08;;;18.39;53.07
42067;BME280;27734;47.028;28.820;2023-05-29T05:01:41;100515.22;;;18.42;52.97
42067;BME280;27734;47.028;28.820;2023-05-29T05:04:11;100520.53;;;18.42;52.63
42067;BME280;27734;47.028;28.820;2023-05-29T05:10:20;100526.73;;;18.45;53.06
42067;BME280;27734;47.028;28.820;2023-05-29T05:12:48;100526.75;;;18.52;52.93
42067;BME280;27734;47.028;28.820;2023-05-29T05:15:18;100519.67;;;18.57;52.96
42067;BME280;27734;47.028;28.820;2023-05-29T05:17:47;100525.00;;;18.61;52.53
42067;BME280;27734;47.028;28.820;2023-05-29T05:20:15;100525.88;;;18.60;52.77
42067;BME280;27734;47.028;28.820;2023-05-29T05:22:45;100525.02;;;18.63;52.71
42067;BME280;27734;47.028;28.820;2023-05-29T05:25:14;100529.45;;;18.65;52.44
42067;BME280;27734;47.028;28.820;2023-05-29T05:27:45;100523.25;;;18.71;52.48
42067;BME280;27734;47.028;28.820;2023-05-29T05:30:14;100524.19;;;18.81;52.40
42067;BME280;27734;47.028;28.820;2023-05-29T05:32:43;100527.78;;;18.94;52.38
42067;BME280;27734;47.028;28.820;2023-05-29T05:35:14;100528.68;;;19.07;51.99
42067;BME280;27734;47.028;28.820;2023-05-29T05:38:04;100528.70;;;19.19;52.47
42067;BME280;27734;47.028;28.820;2023-05-29T05:40:33;100532.23;;;19.33;52.50
42067;BME280;27734;47.028;28.820;2023-05-29T05:43:10;100529.58;;;19.46;51.88
42067;BME280;27734;47.028;28.820;2023-05-29T05:46:01;100526.91;;;19.58;51.97
42067;BME280;27734;47.028;28.820;2023-05-29T05:48:31;100526.03;;;19.68;51.62
42067;BME280;27734;47.028;28.820;2023-05-29T05:50:59;100522.48;;;19.79;51.38
42067;BME280;27734;47.028;28.820;2023-05-29T05:53:28;100524.24;;;19.92;51.09
42067;BME280;27734;47.028;28.820;2023-05-29T05:55:57;100538.41;;;20.03;50.34
42067;BME280;27734;47.028;28.820;2023-05-29T05:58:27;100533.06;;;20.09;50.36
42067;BME280;27734;47.028;28.820;2023-05-29T06:00:58;100527.70;;;20.19;50.74
42067;BME280;27734;47.028;28.820;2023-05-29T06:03:28;100533.88;;;20.30;50.62
42067;BME280;27734;47.028;28.820;2023-05-29T06:06:03;100524.09;;;20.38;50.02
42067;BME280;27734;47.028;28.820;2023-05-29T06:08:31;100519.60;;;20.48;50.79
42067;BME280;27734;47.028;28.820;2023-05-29T06:11:02;100519.56;;;20.56;50.45
42067;BME280;27734;47.028;28.820;2023-05-29T06:13:33;100519.58;;;20.53;50.01
42067;BME280;27734;47.028;28.820;2023-05-29T06:16:08;100516.91;;;20.53;50.09
42067;BME280;27734;47.028;28.820;2023-05-29T06:18:37;100517.80;;;20.52;50.16
42067;BME280;27734;47.028;28.820;2023-05-29T06:21:07;100515.13;;;20.53;50.27
42067;BME280;27734;47.028;28.820;2023-05-29T06:23:40;100516.88;;;20.62;49.32
42067;BME280;27734;47.028;28.820;2023-05-29T06:26:11;100513.30;;;20.60;50.19
42067;BME280;27734;47.028;28.820;2023-05-29T06:28:40;100508.88;;;20.60;49.16
42067;BME280;27734;47.028;28.820;2023-05-29T06:31:09;100512.41;;;20.62;49.80
42067;BME280;27734;47.028;28.820;2023-05-29T06:33:38;100512.42;;;20.67;50.05
42067;BME280;27734;47.028;28.820;2023-05-29T06:36:08;100505.30;;;20.68;49.85
42067;BME280;27734;47.028;28.820;2023-05-29T06:38:54;100504.44;;;20.65;49.50
42067;BME280;27734;47.028;28.820;2023-05-29T06:41:42;100500.89;;;20.65;49.84
42067;BME280;27734;47.028;28.820;2023-05-29T06:44:11;100508.88;;;20.62;49.50
42067;BME280;27734;47.028;28.820;2023-05-29T06:46:41;100506.20;;;20.62;49.23
42067;BME280;27734;47.028;28.820;2023-05-29T06:49:09;100513.29;;;20.69;48.80
42067;BME280;27734;47.028;28.820;2023-05-29T06:51:38;100508.84;;;20.74;48.83
42067;BME280;27734;47.028;28.820;2023-05-29T06:54:24;100513.27;;;20.74;49.19
42067;BME280;27734;47.028;28.820;2023-05-29T06:56:53;100509.77;;;20.65;49.48
42067;BME280;27734;47.028;28.820;2023-05-29T06:59:22;100495.56;;;20.59;49.21
42067;BME280;27734;47.028;28.820;2023-05-29T07:01:54;100493.77;;;20.65;48.72
42067;BME280;27734;47.028;28.820;2023-05-29T07:04:24;100494.58;;;20.77;48.83
42067;BME280;27734;47.028;28.820;2023-05-29T07:06:53;100490.03;;;20.96;48.69
42067;BME280;27734;47.028;28.820;2023-05-29T07:09:22;100495.16;;;21.19;49.42
42067;BME280;27734;47.028;28.820;2023-05-29T07:11:55;100489.61;;;21.45;49.46
42067;BME280;27734;47.028;28.820;2023-05-29T07:14:25;100496.54;;;21.69;48.88
42067;BME280;27734;47.028;28.820;2023-05-29T07:16:53;100492.70;;;21.94;48.60
42067;BME280;27734;47.028;28.820;2023-05-29T07:19:23;100490.59;;;22.22;48.19
42067;BME280;27734;47.028;28.820;2023-05-29T07:21:52;100487.69;;;22.42;47.67
42067;BME280;27734;47.028;28.820;2023-05-29T07:24:22;100488.54;;;22.47;47.67
42067;BME280;27734;47.028;28.820;2023-05-29T07:26:51;100490.18;;;22.56;47.79
42067;BME280;27734;47.028;28.820;2023-05-29T07:29:19;100488.25;;;22.66;47.15
42067;BME280;27734;47.028;28.820;2023-05-29T07:31:53;100481.78;;;22.82;46.84
42067;BME280;27734;47.028;28.820;2023-05-29T07:34:23;100485.98;;;23.00;47.06
42067;BME280;27734;47.028;28.820;2023-05-29T07:37:00;100487.80;;;22.96;46.16
42067;BME280;27734;47.028;28.820;2023-05-29T07:39:29;100487.87;;;22.92;46.22
42067;BME280;27734;47.028;28.820;2023-05-29T07:41:59;100489.62;;;22.94;46.29
42067;BME280;27734;47.028;28.820;2023-05-29T07:44:29;100488.59;;;23.05;46.07
42067;BME280;27734;47.028;28.820;2023-05-29T07:46:58;100482.03;;;23.24;45.38
42067;BME280;27734;47.028;28.820;2023-05-29T07:49:36;100478.17;;;23.42;45.53
42067;BME280;27734;47.028;28.820;2023-05-29T07:52:10;100476.09;;;23.58;45.23
42067;BME280;27734;47.028;28.820;2023-05-29T07:54:41;100473.24;;;23.67;45.09
42067;BME280;27734;47.028;28.820;2023-05-29T07:57:11;100465.84;;;23.80;45.19
42067;BME280;27734;47.028;28.820;2023-05-29T07:59:42;100465.67;;;23.91;44.70
42067;BME280;27734;47.028;28.820;2023-05-29T08:02:11;100467.42;;;23.94;44.30
42067;BME280;27734;47.028;28.820;2023-05-29T08:05:07;100477.23;;;23.93;44.37
42067;BME280;27734;47.028;28.820;2023-05-29T08:07:37;100468.41;;;23.88;44.25
42067;BME280;27734;47.028;28.820;2023-05-29T08:10:08;100461.13;;;23.95;44.28
42067;BME280;27734;47.028;28.820;2023-05-29T08:12:37;100456.32;;;24.12;43.94
42067;BME280;27734;47.028;28.820;2023-05-29T08:15:07;100454.09;;;24.33;44.24
42067;BME280;27734;47.028;28.820;2023-05-29T08:17:37;100464.31;;;24.57;43.76
42067;BME280;27734;47.028;28.820;2023-05-29T08:20:08;100457.69;;;24.72;44.07
42067;BME280;27734;47.028;28.820;2023-05-29T08:22:38;100456.41;;;24.89;43.21
42067;BME280;27734;47.028;28.820;2023-05-29T08:25:17;100456.88;;;25.06;43.22
42067;BME280;27734;47.028;28.820;2023-05-29T08:27:45;100461.06;;;25.18;42.82
42067;BME280;27734;47.028;28.820;2023-05-29T08:30:14;100448.19;;;25.33;43.45
42067;BME280;27734;47.028;28.820;2023-05-29T08:32:44;100452.22;;;25.49;43.08
42067;BME280;27734;47.028;28.820;2023-05-29T08:35:14;100445.56;;;25.64;42.84
42067;BME280;27734;47.028;28.820;2023-05-29T08:37:44;100446.09;;;25.77;42.78
42067;BME280;27734;47.028;28.820;2023-05-29T08:40:12;100447.69;;;25.84;41.91
42067;BME280;27734;47.028;28.820;2023-05-29T08:42:47;100437.94;;;25.80;42.21
42067;BME280;27734;47.028;28.820;2023-05-29T08:45:16;100450.72;;;25.72;41.36
42067;BME280;27734;47.028;28.820;2023-05-29T08:47:53;100449.16;;;25.63;40.97
42067;BME280;27734;47.028;28.820;2023-05-29T08:50:25;100437.58;;;25.61;40.96
42067;BME280;27734;47.028;28.820;2023-05-29T08:52:54;100440.05;;;25.69;41.07
42067;BME280;27734;47.028;28.820;2023-05-29T08:55:25;100446.13;;;25.75;40.99
42067;BME280;27734;47.028;28.820;2023-05-29T08:57:54;100445.09;;;25.81;40.69
42067;BME280;27734;47.028;28.820;2023-05-29T09:00:24;100450.63;;;25.75;40.35
42067;BME280;27734;47.028;28.820;2023-05-29T09:02:57;100445.34;;;25.72;40.82
42067;BME280;27734;47.028;28.820;2023-05-29T09:05:27;100445.78;;;25.88;40.35
42067;BME280;27734;47.028;28.820;2023-05-29T09:07:55;100443.61;;;26.02;40.21
42067;BME280;27734;47.028;28.820;2023-05-29T09:10:24;100441.59;;;26.10;40.43
42067;BME280;27734;47.028;28.820;2023-05-29T09:12:54;100443.34;;;26.11;39.75
42067;BME280;27734;47.028;28.820;2023-05-29T09:15:24;100431.62;;;26.14;40.04
42067;BME280;27734;47.028;28.820;2023-05-29T09:17:54;100432.40;;;26.17;39.33
42067;BME280;27734;47.028;28.820;2023-05-29T09:20:24;100426.47;;;26.06;39.55
42067;BME280;27734;47.028;28.820;2023-05-29T09:22:57;100425.51;;;26.09;39.78
42067;BME280;27734;47.028;28.820;2023-05-29T09:25:28;100424.65;;;26.07;39.55
42067;BME280;27734;47.028;28.820;2023-05-29T09:28:00;100415.67;;;26.08;39.80
42067;BME280;27734;47.028;28.820;2023-05-29T09:30:35;100413.25;;;25.98;39.40
42067;BME280;27734;47.028;28.820;2023-05-29T09:33:05;100417.86;;;25.93;39.13
42067;BME280;27734;47.028;28.820;2023-05-29T09:35:35;100414.27;;;25.93;38.99
42067;BME280;27734;47.028;28.820;2023-05-29T09:38:06;100413.94;;;26.05;39.25
42067;BME280;27734;47.028;28.820;2023-05-29T09:40:37;100407.33;;;26.17;39.23
42067;BME280;27734;47.028;28.820;2023-05-29T09:43:11;100397.39;;;26.19;39.24
42067;BME280;27734;47.028;28.820;2023-05-29T09:45:43;100408.24;;;26.16;39.18
42067;BME280;27734;47.028;28.820;2023-05-29T09:48:31;100402.32;;;26.05;39.21
42067;BME280;27734;47.028;28.820;2023-05-29T09:51:04;100401.78;;;25.92;39.05
42067;BME280;27734;47.028;28.820;2023-05-29T09:53:43;100405.97;;;26.02;39.15
42067;BME280;27734;47.028;28.820;2023-05-29T09:56:13;100403.19;;;26.05;38.32
42067;BME280;27734;47.028;28.820;2023-05-29T09:58:54;100399.49;;;26.09;38.79
42067;BME280;27734;47.028;28.820;2023-05-29T10:01:27;100388.31;;;26.23;38.62
42067;BME280;27734;47.028;28.820;2023-05-29T10:03:59;100389.53;;;26.41;39.15
42067;BME280;27734;47.028;28.820;2023-05-29T10:06:38;100389.04;;;26.57;38.74
42067;BME280;27734;47.028;28.820;2023-05-29T10:09:13;100393.60;;;26.54;38.07
42067;BME280;27734;47.028;28.820;2023-05-29T10:11:49;100392.55;;;26.32;37.63
42067;BME280;27734;47.028;28.820;2023-05-29T10:14:22;100394.16;;;26.08;38.04
42067;BME280;27734;47.028;28.820;2023-05-29T10:20:35;100397.13;;;25.98;37.37
42067;BME280;27734;47.028;28.820;2023-05-29T10:23:10;100396.20;;;25.99;37.70
42067;BME280;27734;47.028;28.820;2023-05-29T10:25:49;100398.58;;;26.10;38.15
42067;BME280;27734;47.028;28.820;2023-05-29T10:28:23;100387.82;;;26.10;37.72
42067;BME280;27734;47.028;28.820;2023-05-29T10:31:08;100384.90;;;26.18;38.06
42067;BME280;27734;47.028;28.820;2023-05-29T10:33:56;100384.56;;;26.29;37.50
42067;BME280;27734;47.028;28.820;2023-05-29T10:36:32;100377.95;;;26.39;37.61
42067;BME280;27734;47.028;28.820;2023-05-29T10:39:08;100388.91;;;26.33;37.23
42067;BME280;27734;47.028;28.820;2023-05-29T10:41:40;100375.50;;;26.31;37.13
42067;BME280;27734;47.028;28.820;2023-05-29T10:44:38;100364.59;;;26.36;37.12
42067;BME280;27734;47.028;28.820;2023-05-29T10:47:24;100381.36;;;26.44;36.73
42067;BME280;27734;47.028;28.820;2023-05-29T10:50:02;100363.19;;;26.52;37.15
42067;BME280;27734;47.028;28.820;2023-05-29T10:52:33;100358.67;;;26.53;36.47
42067;BME280;27734;47.028;28.820;2023-05-29T10:55:14;100359.39;;;26.58;36.35
42067;BME280;27734;47.028;28.820;2023-05-29T10:57:53;100365.73;;;26.57;36.78
42067;BME280;27734;47.028;28.820;2023-05-29T11:00:34;100357.91;;;26.49;36.93
42067;BME280;27734;47.028;28.820;2023-05-29T11:03:12;100363.28;;;26.49;37.06
42067;BME280;27734;47.028;28.820;2023-05-29T11:05:58;100350.85;;;26.45;37.15
42067;BME280;27734;47.028;28.820;2023-05-29T11:08:41;100353.39;;;26.50;37.07
42067;BME280;27734;47.028;28.820;2023-05-29T11:11:16;100353.96;;;26.60;37.23
42067;BME280;27734;47.028;28.820;2023-05-29T11:14:15;100341.70;;;26.79;36.98
42067;BME280;27734;47.028;28.820;2023-05-29T11:16:50;100347.58;;;26.90;36.81
42067;BME280;27734;47.028;28.820;2023-05-29T11:19:24;100338.27;;;27.01;36.66
42067;BME280;27734;47.028;28.820;2023-05-29T11:24:58;100336.44;;;27.26;36.65
42067;BME280;27734;47.028;28.820;2023-05-29T11:30:30;100336.90;;;27.39;35.80
42067;BME280;27734;47.028;28.820;2023-05-29T11:33:03;100334.83;;;27.48;36.40
42067;BME280;27734;47.028;28.820;2023-05-29T11:35:39;100328.98;;;27.60;35.79
42067;BME280;27734;47.028;28.820;2023-05-29T11:38:38;100334.20;;;27.65;35.44
42067;BME280;27734;47.028;28.820;2023-05-29T11:41:07;100325.52;;;27.80;35.65
42067;BME280;27734;47.028;28.820;2023-05-29T11:43:37;100321.57;;;27.89;35.38
42067;BME280;27734;47.028;28.820;2023-05-29T11:46:20;100327.66;;;27.94;34.87
42067;BME280;27734;47.028;28.820;2023-05-29T11:48:53;100319.84;;;27.88;35.14
42067;BME280;27734;47.028;28.820;2023-05-29T11:51:23;100324.20;;;27.90;35.02
42067;BME280;27734;47.028;28.820;2023-05-29T11:53:54;100322.05;;;28.00;34.96
42067;BME280;27734;47.028;28.820;2023-05-29T11:56:28;100324.95;;;27.94;34.85
42067;BME280;27734;47.028;28.820;2023-05-29T11:58:59;100313.78;;;27.81;34.57
42067;BME280;27734;47.028;28.820;2023-05-29T12:01:34;100312.91;;;27.80;34.83
42067;BME280;27734;47.028;28.820;2023-05-29T12:04:14;100317.68;;;27.97;34.67
42067;BME280;27734;47.028;28.820;2023-05-29T12:06:45;100324.75;;;28.00;34.38
42067;BME280;27734;47.028;28.820;2023-05-29T12:09:25;100319.05;;;27.84;34.46
42067;BME280;27734;47.028;28.820;2023-05-29T12:12:06;100317.97;;;27.66;33.77
42067;BME280;27734;47.028;28.820;2023-05-29T12:14:39;100316.38;;;27.60;34.25
42067;BME280;27734;47.028;28.820;2023-05-29T12:17:11;100316.14;;;27.67;34.01
42067;BME280;27734;47.028;28.820;2023-05-29T12:19:44;100312.63;;;27.65;34.60
42067;BME280;27734;47.028;28.820;2023-05-29T12:22:16;100308.80;;;27.70;34.39
42067;BME280;27734;47.028;28.820;2023-05-29T12:24:48;100309.11;;;27.86;34.71
42067;BME280;27734;47.028;28.820;2023-05-29T12:27:21;100313.16;;;27.98;34.35
42067;BME280;27734;47.028;28.820;2023-05-29T12:30:00;100313.60;;;27.86;34.25
42067;BME280;27734;47.028;28.820;2023-05-29T12:32:36;100313.45;;;27.67;34.25
42067;BME280;27734;47.028;28.820;2023-05-29T12:35:13;100303.30;;;27.50;34.08
42067;BME280;27734;47.028;28.820;2023-05-29T12:37:57;100312.06;;;27.31;34.05
42067;BME280;27734;47.028;28.820;2023-05-29T12:40:28;100309.56;;;27.25;34.38
42067;BME280;27734;47.028;28.820;2023-05-29T12:43:00;100307.87;;;27.22;34.03
42067;BME280;27734;47.028;28.820;2023-05-29T12:45:31;100303.30;;;27.24;34.33
42067;BME280;27734;47.028;28.820;2023-05-29T12:48:04;100309.20;;;27.36;34.07
42067;BME280;27734;47.028;28.820;2023-05-29T12:50:34;100302.27;;;27.29;34.09
42067;BME280;27734;47.028;28.820;2023-05-29T12:53:06;100294.52;;;27.19;34.47
42067;BME280;27734;47.028;28.820;2023-05-29T12:55:36;100292.98;;;27.12;34.08
42067;BME280;27734;47.028;28.820;2023-05-29T12:58:07;100288.73;;;27.05;34.00
42067;BME280;27734;47.028;28.820;2023-05-29T13:00:38;100288.69;;;27.06;34.70
42067;BME280;27734;47.028;28.820;2023-05-29T13:03:12;100291.42;;;27.05;34.39
42067;BME280;27734;47.028;28.820;2023-05-29T13:05:48;100293.36;;;27.01;34.14
42067;BME280;27734;47.028;28.820;2023-05-29T13:08:25;100281.67;;;27.02;34.54
42067;BME280;27734;47.028;28.820;2023-05-29T13:10:54;100280.44;;;27.11;34.39
42067;BME280;27734;47.028;28.820;2023-05-29T13:13:22;100281.39;;;27.10;34.44
42067;BME280;27734;47.028;28.820;2023-05-29T13:15:51;100281.50;;;27.07;34.83
42067;BME280;27734;47.028;28.820;2023-05-29T13:18:22;100286.33;;;27.22;34.50